sensor_id;sensor_type;location;lat;lon;timestamp;P1;durP1;ratioP1;P2;durP2;ratioP2
3677;SDS011;1855;50.934;6.958;2023-03-01T00:02:15;6.93;;;6.22;;
3677;SDS011;1855;50.934;6.958;2023-03-01T00:04:44;7.50;;;6.80;;
3677;SDS011;1855;50.934;6.958;2023-03-01T00:07:12;7.55;;;6.95;;
3677;SDS011;1855;50.934;6.958;2023-03-01T00:09:39;7.82;;;7.10;;
3677;SDS011;1855;50.934;6.958;2023-03-01T00:12:06;8.25;;;7.45;;
3677;SDS011;1855;50.934;6.958;2023-03-01T00:14:32;8.70;;;7.80;;
3677;SDS011;1855;50.934;6.958;2023-03-01T00:16:59;8.10;;;7.40;;
3677;SDS011;1855;50.934;6.958;2023-03-01T00:19:26;8.50;;;7.70;;
3677;SDS011;1855;50.934;6.958;2023-03-01T00:21:53;7.60;;;6.90;;
3677;SDS011;1855;50.934;6.958;2023-03-01T00:24:22;8.40;;;7.70;;
3677;SDS011;1855;50.934;6.958;2023-03-01T00:26:48;8.63;;;7.82;;
3677;SDS011;1855;50.934;6.958;2023-03-01T00:29:20;8.20;;;7.40;;
3677;SDS011;1855;50.934;6.958;2023-03-01T00:31:47;8.32;;;7.53;;
3677;SDS011;1855;50.934;6.958;2023-03-01T00:34:13;8.10;;;7.40;;
3677;SDS011;1855;50.934;6.958;2023-03-01T00:36:40;8.10;;;7.30;;
3677;SDS011;1855;50.934;6.958;2023-03-01T00:39:09;7.70;;;7.00;;
3677;SDS011;1855;50.934;6.958;2023-03-01T00:41:39;8.07;;;7.28;;
3677;SDS011;1855;50.934;6.958;2023-03-01T00:44:06;7.78;;;7.07;;
3677;SDS011;1855;50.934;6.958;2023-03-01T00:46:33;8.20;;;7.50;;
3677;SDS011;1855;50.934;6.958;2023-03-01T00:49:00;7.07;;;6.47;;
3677;SDS011;1855;50.934;6.958;2023-03-01T00:51:27;7.70;;;7.07;;
3677;SDS011;1855;50.934;6.958;2023-03-01T00:53:55;7.80;;;7.10;;
3677;SDS011;1855;50.934;6.958;2023-03-01T00:56:23;7.50;;;6.90;;
3677;SDS011;1855;50.934;6.958;2023-03-01T00:58:52;8.02;;;7.22;;
3677;SDS011;1855;50.934;6.958;2023-03-01T01:01:20;8.40;;;7.60;;
3677;SDS011;1855;50.934;6.958;2023-03-01T01:03:49;7.88;;;7.28;;
3677;SDS011;1855;50.934;6.958;2023-03-01T01:06:18;7.43;;;6.82;;
3677;SDS011;1855;50.934;6.958;2023-03-01T01:08:46;7.60;;;6.90;;
3677;SDS011;1855;50.934;6.958;2023-03-01T01:11:14;7.10;;;6.50;;
3677;SDS011;1855;50.934;6.958;2023-03-01T01:13:41;7.80;;;7.10;;
3677;SDS011;1855;50.934;6.958;2023-03-01T01:16:12;8.15;;;7.35;;
3677;SDS011;1855;50.934;6.958;2023-03-01T01:18:38;7.90;;;7.20;;
3677;SDS011;1855;50.934;6.958;2023-03-01T01:21:06;7.47;;;6.88;;
3677;SDS011;1855;50.934;6.958;2023-03-01T01:23:34;7.13;;;6.53;;
3677;SDS011;1855;50.934;6.958;2023-03-01T01:26:05;8.10;;;7.10;;
3677;SDS011;1855;50.934;6.958;2023-03-01T01:28:33;7.18;;;6.57;;
3677;SDS011;1855;50.934;6.958;2023-03-01T01:31:00;7.70;;;7.00;;
3677;SDS011;1855;50.934;6.958;2023-03-01T01:33:28;7.85;;;7.15;;
3677;SDS011;1855;50.934;6.958;2023-03-01T01:35:55;8.43;;;7.60;;
3677;SDS011;1855;50.934;6.958;2023-03-01T01:38:22;8.10;;;7.40;;
3677;SDS011;1855;50.934;6.958;2023-03-01T01:40:49;7.90;;;7.30;;
3677;SDS011;1855;50.934;6.958;2023-03-01T01:43:21;7.82;;;7.20;;
3677;SDS011;1855;50.934;6.958;2023-03-01T01:45:52;8.18;;;7.35;;
3677;SDS011;1855;50.934;6.958;2023-03-01T01:48:21;7.80;;;7.00;;
3677;SDS011;1855;50.934;6.958;2023-03-01T01:50:53;8.80;;;7.90;;
3677;SDS011;1855;50.934;6.958;2023-03-01T01:53:25;7.30;;;6.60;;
3677;SDS011;1855;50.934;6.958;2023-03-01T01:55:56;7.53;;;6.93;;
3677;SDS011;1855;50.934;6.958;2023-03-01T01:58:26;7.70;;;7.10;;
3677;SDS011;1855;50.934;6.958;2023-03-01T02:00:56;7.35;;;6.75;;
3677;SDS011;1855;50.934;6.958;2023-03-01T02:03:24;7.25;;;6.55;;
3677;SDS011;1855;50.934;6.958;2023-03-01T02:05:57;8.57;;;7.88;;
3677;SDS011;1855;50.934;6.958;2023-03-01T02:08:28;8.23;;;7.53;;
3677;SDS011;1855;50.934;6.958;2023-03-01T02:10:56;8.10;;;7.30;;
3677;SDS011;1855;50.934;6.958;2023-03-01T02:13:25;8.25;;;7.50;;
3677;SDS011;1855;50.934;6.958;2023-03-01T02:15:53;8.13;;;7.43;;
3677;SDS011;1855;50.934;6.958;2023-03-01T02:18:20;8.00;;;7.20;;
3677;SDS011;1855;50.934;6.958;2023-03-01T02:20:50;7.60;;;6.90;;
3677;SDS011;1855;50.934;6.958;2023-03-01T02:23:27;7.70;;;7.10;;
3677;SDS011;1855;50.934;6.958;2023-03-01T02:25:56;8.20;;;7.40;;
3677;SDS011;1855;50.934;6.958;2023-03-01T02:28:32;7.97;;;7.28;;
3677;SDS011;1855;50.934;6.958;2023-03-01T02:31:01;8.02;;;7.32;;
3677;SDS011;1855;50.934;6.958;2023-03-01T02:33:47;7.77;;;7.07;;
3677;SDS011;1855;50.934;6.958;2023-03-01T02:36:24;8.10;;;7.37;;
3677;SDS011;1855;50.934;6.958;2023-03-01T02:38:55;8.10;;;7.40;;
3677;SDS011;1855;50.934;6.958;2023-03-01T02:41:24;8.32;;;7.63;;
3677;SDS011;1855;50.934;6.958;2023-03-01T02:43:55;8.65;;;7.95;;
3677;SDS011;1855;50.934;6.958;2023-03-01T02:46:22;8.93;;;8.02;;
3677;SDS011;1855;50.934;6.958;2023-03-01T02:48:52;8.77;;;7.97;;
3677;SDS011;1855;50.934;6.958;2023-03-01T02:51:24;8.90;;;8.10;;
3677;SDS011;1855;50.934;6.958;2023-03-01T02:54:00;8.45;;;7.65;;
3677;SDS011;1855;50.934;6.958;2023-03-01T02:56:34;9.02;;;8.23;;
3677;SDS011;1855;50.934;6.958;2023-03-01T02:59:03;8.80;;;8.00;;
3677;SDS011;1855;50.934;6.958;2023-03-01T03:01:30;8.27;;;7.47;;
3677;SDS011;1855;50.934;6.958;2023-03-01T03:04:03;9.30;;;8.40;;
3677;SDS011;1855;50.934;6.958;2023-03-01T03:06:30;8.82;;;8.02;;
3677;SDS011;1855;50.934;6.958;2023-03-01T03:08:57;8.75;;;7.65;;
3677;SDS011;1855;50.934;6.958;2023-03-01T03:11:24;8.63;;;7.78;;
3677;SDS011;1855;50.934;6.958;2023-03-01T03:13:51;8.80;;;8.00;;
3677;SDS011;1855;50.934;6.958;2023-03-01T03:16:19;8.20;;;7.50;;
3677;SDS011;1855;50.934;6.958;2023-03-01T03:18:46;8.90;;;8.10;;
3677;SDS011;1855;50.934;6.958;2023-03-01T03:21:13;8.98;;;8.18;;
3677;SDS011;1855;50.934;6.958;2023-03-01T03:23:41;8.98;;;8.07;;
3677;SDS011;1855;50.934;6.958;2023-03-01T03:26:08;8.85;;;8.05;;
3677;SDS011;1855;50.934;6.958;2023-03-01T03:28:39;9.63;;;8.50;;
3677;SDS011;1855;50.934;6.958;2023-03-01T03:31:07;8.52;;;7.82;;
3677;SDS011;1855;50.934;6.958;2023-03-01T03:33:35;9.32;;;8.52;;
3677;SDS011;1855;50.934;6.958;2023-03-01T03:36:02;8.90;;;8.10;;
3677;SDS011;1855;50.934;6.958;2023-03-01T03:38:29;9.10;;;8.20;;
3677;SDS011;1855;50.934;6.958;2023-03-01T03:41:00;9.30;;;8.50;;
3677;SDS011;1855;50.934;6.958;2023-03-01T03:43:29;9.13;;;8.25;;
3677;SDS011;1855;50.934;6.958;2023-03-01T03:45:58;8.90;;;8.10;;
3677;SDS011;1855;50.934;6.958;2023-03-01T03:48:25;10.00;;;9.00;;
3677;SDS011;1855;50.934;6.958;2023-03-01T03:50:54;9.00;;;8.20;;
3677;SDS011;1855;50.934;6.958;2023-03-01T03:53:22;8.77;;;7.97;;
3677;SDS011;1855;50.934;6.958;2023-03-01T03:55:50;8.95;;;8.15;;
3677;SDS011;1855;50.934;6.958;2023-03-01T03:58:17;9.70;;;8.80;;
3677;SDS011;1855;50.934;6.958;2023-03-01T04:00:46;9.40;;;8.50;;
3677;SDS011;1855;50.934;6.958;2023-03-01T04:03:14;8.53;;;7.83;;
3677;SDS011;1855;50.934;6.958;2023-03-01T04:05:43;9.70;;;8.80;;
3677;SDS011;1855;50.934;6.958;2023-03-01T04:08:11;9.00;;;8.20;;
3677;SDS011;1855;50.934;6.958;2023-03-01T04:10:39;9.00;;;8.30;;
3677;SDS011;1855;50.934;6.958;2023-03-01T04:13:09;8.88;;;8.18;;
3677;SDS011;1855;50.934;6.958;2023-03-01T04:15:38;9.40;;;8.50;;
3677;SDS011;1855;50.934;6.958;2023-03-01T04:18:06;9.30;;;8.40;;
3677;SDS011;1855;50.934;6.958;2023-03-01T04:20:33;9.25;;;8.35;;
3677;SDS011;1855;50.934;6.958;2023-03-01T04:23:02;9.77;;;8.80;;
3677;SDS011;1855;50.934;6.958;2023-03-01T04:25:37;9.57;;;8.68;;
3677;SDS011;1855;50.934;6.958;2023-03-01T04:28:06;9.80;;;8.90;;
3677;SDS011;1855;50.934;6.958;2023-03-01T04:30:33;9.60;;;8.70;;
3677;SDS011;1855;50.934;6.958;2023-03-01T04:33:01;9.90;;;8.98;;
3677;SDS011;1855;50.934;6.958;2023-03-01T04:35:29;9.30;;;8.40;;
3677;SDS011;1855;50.934;6.958;2023-03-01T04:37:56;11.15;;;9.48;;
3677;SDS011;1855;50.934;6.958;2023-03-01T04:40:23;10.07;;;9.18;;
3677;SDS011;1855;50.934;6.958;2023-03-01T04:42:51;9.85;;;8.90;;
3677;SDS011;1855;50.934;6.958;2023-03-01T04:45:18;12.23;;;11.07;;
3677;SDS011;1855;50.934;6.958;2023-03-01T04:47:45;11.27;;;10.27;;
3677;SDS011;1855;50.934;6.958;2023-03-01T04:50:13;10.63;;;9.63;;
3677;SDS011;1855;50.934;6.958;2023-03-01T04:52:40;10.40;;;9.40;;
3677;SDS011;1855;50.934;6.958;2023-03-01T04:55:08;10.93;;;9.93;;
3677;SDS011;1855;50.934;6.958;2023-03-01T04:57:36;10.50;;;9.60;;
3677;SDS011;1855;50.934;6.958;2023-03-01T05:00:05;10.30;;;9.40;;
3677;SDS011;1855;50.934;6.958;2023-03-01T05:02:45;9.90;;;9.00;;
3677;SDS011;1855;50.934;6.958;2023-03-01T05:05:13;10.25;;;9.25;;
3677;SDS011;1855;50.934;6.958;2023-03-01T05:07:40;10.53;;;9.63;;
3677;SDS011;1855;50.934;6.958;2023-03-01T05:10:08;10.55;;;9.55;;
3677;SDS011;1855;50.934;6.958;2023-03-01T05:12:35;10.88;;;9.88;;
3677;SDS011;1855;50.934;6.958;2023-03-01T05:15:02;10.80;;;9.80;;
3677;SDS011;1855;50.934;6.958;2023-03-01T05:17:32;10.38;;;9.48;;
3677;SDS011;1855;50.934;6.958;2023-03-01T05:19:58;10.80;;;9.70;;
3677;SDS011;1855;50.934;6.958;2023-03-01T05:22:25;10.70;;;9.70;;
3677;SDS011;1855;50.934;6.958;2023-03-01T05:24:52;11.00;;;10.00;;
3677;SDS011;1855;50.934;6.958;2023-03-01T05:27:20;12.38;;;11.18;;
3677;SDS011;1855;50.934;6.958;2023-03-01T05:29:47;11.43;;;10.32;;
3677;SDS011;1855;50.934;6.958;2023-03-01T05:32:15;11.95;;;10.75;;
3677;SDS011;1855;50.934;6.958;2023-03-01T05:34:42;11.23;;;10.23;;
3677;SDS011;1855;50.934;6.958;2023-03-01T05:37:11;11.60;;;10.40;;
3677;SDS011;1855;50.934;6.958;2023-03-01T05:39:38;11.70;;;10.70;;
3677;SDS011;1855;50.934;6.958;2023-03-01T05:42:09;11.43;;;10.05;;
3677;SDS011;1855;50.934;6.958;2023-03-01T05:44:37;12.13;;;10.93;;
3677;SDS011;1855;50.934;6.958;2023-03-01T05:47:04;11.80;;;10.70;;
3677;SDS011;1855;50.934;6.958;2023-03-01T05:49:32;11.88;;;10.57;;
3677;SDS011;1855;50.934;6.958;2023-03-01T05:51:59;12.18;;;11.10;;
3677;SDS011;1855;50.934;6.958;2023-03-01T05:54:26;11.60;;;10.50;;
3677;SDS011;1855;50.934;6.958;2023-03-01T05:56:53;11.55;;;10.35;;
3677;SDS011;1855;50.934;6.958;2023-03-01T05:59:21;11.52;;;10.43;;
3677;SDS011;1855;50.934;6.958;2023-03-01T06:01:48;11.43;;;10.30;;
3677;SDS011;1855;50.934;6.958;2023-03-01T06:04:15;11.10;;;10.10;;
3677;SDS011;1855;50.934;6.958;2023-03-01T06:06:43;11.80;;;10.70;;
3677;SDS011;1855;50.934;6.958;2023-03-01T06:09:09;11.73;;;10.52;;
3677;SDS011;1855;50.934;6.958;2023-03-01T06:11:36;12.13;;;10.93;;
3677;SDS011;1855;50.934;6.958;2023-03-01T06:14:03;11.60;;;10.50;;
3677;SDS011;1855;50.934;6.958;2023-03-01T06:16:31;11.80;;;10.60;;
3677;SDS011;1855;50.934;6.958;2023-03-01T06:18:58;12.20;;;11.10;;
3677;SDS011;1855;50.934;6.958;2023-03-01T06:21:25;11.60;;;10.50;;
3677;SDS011;1855;50.934;6.958;2023-03-01T06:23:53;12.30;;;11.10;;
3677;SDS011;1855;50.934;6.958;2023-03-01T06:26:19;11.25;;;10.25;;
3677;SDS011;1855;50.934;6.958;2023-03-01T06:28:46;12.10;;;10.90;;
3677;SDS011;1855;50.934;6.958;2023-03-01T06:31:13;12.55;;;11.05;;
3677;SDS011;1855;50.934;6.958;2023-03-01T06:33:40;12.47;;;11.17;;
3677;SDS011;1855;50.934;6.958;2023-03-01T06:36:07;12.48;;;11.38;;
3677;SDS011;1855;50.934;6.958;2023-03-01T06:38:35;12.38;;;11.10;;
3677;SDS011;1855;50.934;6.958;2023-03-01T06:41:03;12.52;;;11.40;;
3677;SDS011;1855;50.934;6.958;2023-03-01T06:43:30;12.00;;;10.80;;
3677;SDS011;1855;50.934;6.958;2023-03-01T06:45:57;13.35;;;12.07;;
3677;SDS011;1855;50.934;6.958;2023-03-01T06:48:23;12.03;;;10.90;;
3677;SDS011;1855;50.934;6.958;2023-03-01T06:50:50;12.10;;;10.90;;
3677;SDS011;1855;50.934;6.958;2023-03-01T06:53:17;12.18;;;11.07;;
3677;SDS011;1855;50.934;6.958;2023-03-01T06:55:44;12.40;;;11.10;;
3677;SDS011;1855;50.934;6.958;2023-03-01T06:58:12;12.75;;;11.45;;
3677;SDS011;1855;50.934;6.958;2023-03-01T07:00:38;13.07;;;11.67;;
3677;SDS011;1855;50.934;6.958;2023-03-01T07:03:05;12.65;;;11.43;;
3677;SDS011;1855;50.934;6.958;2023-03-01T07:05:33;12.77;;;11.15;;
3677;SDS011;1855;50.934;6.958;2023-03-01T07:08:00;12.48;;;11.27;;
3677;SDS011;1855;50.934;6.958;2023-03-01T07:10:27;12.00;;;10.90;;
3677;SDS011;1855;50.934;6.958;2023-03-01T07:12:54;12.80;;;11.50;;
3677;SDS011;1855;50.934;6.958;2023-03-01T07:15:23;12.82;;;11.73;;
3677;SDS011;1855;50.934;6.958;2023-03-01T07:17:50;13.15;;;11.88;;
3677;SDS011;1855;50.934;6.958;2023-03-01T07:20:17;12.90;;;11.60;;
3677;SDS011;1855;50.934;6.958;2023-03-01T07:22:47;12.20;;;11.10;;
3677;SDS011;1855;50.934;6.958;2023-03-01T07:25:14;12.90;;;11.70;;
3677;SDS011;1855;50.934;6.958;2023-03-01T07:27:40;13.80;;;12.38;;
3677;SDS011;1855;50.934;6.958;2023-03-01T07:30:08;13.13;;;11.93;;
3677;SDS011;1855;50.934;6.958;2023-03-01T07:32:37;13.57;;;12.38;;
3677;SDS011;1855;50.934;6.958;2023-03-01T07:35:04;13.07;;;11.98;;
3677;SDS011;1855;50.934;6.958;2023-03-01T07:37:31;13.70;;;12.40;;
3677;SDS011;1855;50.934;6.958;2023-03-01T07:39:58;14.10;;;12.18;;
3677;SDS011;1855;50.934;6.958;2023-03-01T07:42:25;12.57;;;11.25;;
3677;SDS011;1855;50.934;6.958;2023-03-01T07:44:51;15.82;;;13.80;;
3677;SDS011;1855;50.934;6.958;2023-03-01T07:47:18;13.88;;;12.48;;
3677;SDS011;1855;50.934;6.958;2023-03-01T07:49:46;18.70;;;13.00;;
3677;SDS011;1855;50.934;6.958;2023-03-01T07:52:13;13.30;;;11.90;;
3677;SDS011;1855;50.934;6.958;2023-03-01T07:54:41;14.88;;;13.38;;
3677;SDS011;1855;50.934;6.958;2023-03-01T07:57:08;14.07;;;12.68;;
3677;SDS011;1855;50.934;6.958;2023-03-01T07:59:36;13.20;;;11.90;;
3677;SDS011;1855;50.934;6.958;2023-03-01T08:02:02;13.10;;;11.90;;
3677;SDS011;1855;50.934;6.958;2023-03-01T08:04:29;13.27;;;11.98;;
3677;SDS011;1855;50.934;6.958;2023-03-01T08:06:57;12.63;;;11.50;;
3677;SDS011;1855;50.934;6.958;2023-03-01T08:09:24;14.90;;;13.30;;
3677;SDS011;1855;50.934;6.958;2023-03-01T08:11:52;13.52;;;12.20;;
3677;SDS011;1855;50.934;6.958;2023-03-01T08:14:19;13.80;;;12.50;;
3677;SDS011;1855;50.934;6.958;2023-03-01T08:16:48;13.70;;;12.50;;
3677;SDS011;1855;50.934;6.958;2023-03-01T08:19:15;14.02;;;12.82;;
3677;SDS011;1855;50.934;6.958;2023-03-01T08:21:42;13.70;;;12.40;;
3677;SDS011;1855;50.934;6.958;2023-03-01T08:24:10;13.77;;;12.37;;
3677;SDS011;1855;50.934;6.958;2023-03-01T08:26:37;12.80;;;11.70;;
3677;SDS011;1855;50.934;6.958;2023-03-01T08:29:04;13.90;;;12.60;;
3677;SDS011;1855;50.934;6.958;2023-03-01T08:31:33;13.55;;;12.30;;
3677;SDS011;1855;50.934;6.958;2023-03-01T08:34:02;13.90;;;12.70;;
3677;SDS011;1855;50.934;6.958;2023-03-01T08:36:31;13.73;;;12.43;;
3677;SDS011;1855;50.934;6.958;2023-03-01T08:39:01;14.05;;;12.65;;
3677;SDS011;1855;50.934;6.958;2023-03-01T08:41:30;12.55;;;11.45;;
3677;SDS011;1855;50.934;6.958;2023-03-01T08:43:57;13.00;;;11.80;;
3677;SDS011;1855;50.934;6.958;2023-03-01T08:46:24;13.68;;;12.40;;
3677;SDS011;1855;50.934;6.958;2023-03-01T08:48:52;12.95;;;11.85;;
3677;SDS011;1855;50.934;6.958;2023-03-01T08:51:19;12.95;;;11.75;;
3677;SDS011;1855;50.934;6.958;2023-03-01T08:53:47;12.60;;;11.50;;
3677;SDS011;1855;50.934;6.958;2023-03-01T08:56:14;12.80;;;11.60;;
3677;SDS011;1855;50.934;6.958;2023-03-01T08:58:44;12.95;;;11.80;;
3677;SDS011;1855;50.934;6.958;2023-03-01T09:01:13;12.90;;;11.77;;
3677;SDS011;1855;50.934;6.958;2023-03-01T09:03:41;12.32;;;11.25;;
3677;SDS011;1855;50.934;6.958;2023-03-01T09:06:09;12.40;;;11.30;;
3677;SDS011;1855;50.934;6.958;2023-03-01T09:08:38;11.90;;;10.90;;
3677;SDS011;1855;50.934;6.958;2023-03-01T09:11:06;11.82;;;10.73;;
3677;SDS011;1855;50.934;6.958;2023-03-01T09:13:34;12.60;;;11.50;;
3677;SDS011;1855;50.934;6.958;2023-03-01T09:16:03;12.10;;;11.10;;
3677;SDS011;1855;50.934;6.958;2023-03-01T09:18:32;12.13;;;11.00;;
3677;SDS011;1855;50.934;6.958;2023-03-01T09:21:03;12.65;;;11.45;;
3677;SDS011;1855;50.934;6.958;2023-03-01T09:23:32;10.98;;;9.98;;
3677;SDS011;1855;50.934;6.958;2023-03-01T09:25:59;11.40;;;10.40;;
3677;SDS011;1855;50.934;6.958;2023-03-01T09:28:26;11.88;;;10.80;;
3677;SDS011;1855;50.934;6.958;2023-03-01T09:30:52;12.07;;;10.98;;
3677;SDS011;1855;50.934;6.958;2023-03-01T09:33:20;13.10;;;11.90;;
3677;SDS011;1855;50.934;6.958;2023-03-01T09:35:47;12.95;;;11.65;;
3677;SDS011;1855;50.934;6.958;2023-03-01T09:38:14;12.50;;;11.30;;
3677;SDS011;1855;50.934;6.958;2023-03-01T09:40:42;11.20;;;10.20;;
3677;SDS011;1855;50.934;6.958;2023-03-01T09:43:14;11.13;;;10.13;;
3677;SDS011;1855;50.934;6.958;2023-03-01T09:45:46;10.60;;;9.60;;
3677;SDS011;1855;50.934;6.958;2023-03-01T09:48:16;11.13;;;10.13;;
3677;SDS011;1855;50.934;6.958;2023-03-01T09:50:45;10.15;;;9.35;;
3677;SDS011;1855;50.934;6.958;2023-03-01T09:53:13;10.68;;;9.70;;
3677;SDS011;1855;50.934;6.958;2023-03-01T09:55:43;11.23;;;10.33;;
3677;SDS011;1855;50.934;6.958;2023-03-01T10:00:58;10.63;;;9.63;;
3677;SDS011;1855;50.934;6.958;2023-03-01T10:03:30;10.93;;;9.93;;
3677;SDS011;1855;50.934;6.958;2023-03-01T10:06:04;11.20;;;10.20;;
3677;SDS011;1855;50.934;6.958;2023-03-01T10:08:38;10.40;;;9.50;;
3677;SDS011;1855;50.934;6.958;2023-03-01T10:11:16;10.00;;;9.10;;
3677;SDS011;1855;50.934;6.958;2023-03-01T10:13:46;10.20;;;9.30;;
3677;SDS011;1855;50.934;6.958;2023-03-01T10:16:19;10.37;;;9.40;;
3677;SDS011;1855;50.934;6.958;2023-03-01T10:18:53;10.98;;;9.98;;
3677;SDS011;1855;50.934;6.958;2023-03-01T10:21:26;10.40;;;9.45;;
3677;SDS011;1855;50.934;6.958;2023-03-01T10:23:56;10.00;;;9.10;;
3677;SDS011;1855;50.934;6.958;2023-03-01T10:26:36;10.55;;;9.65;;
3677;SDS011;1855;50.934;6.958;2023-03-01T10:29:11;10.27;;;9.40;;
3677;SDS011;1855;50.934;6.958;2023-03-01T10:31:40;11.60;;;10.40;;
3677;SDS011;1855;50.934;6.958;2023-03-01T10:34:13;10.90;;;9.90;;
3677;SDS011;1855;50.934;6.958;2023-03-01T10:36:44;10.10;;;9.20;;
3677;SDS011;1855;50.934;6.958;2023-03-01T10:39:14;10.68;;;9.77;;
3677;SDS011;1855;50.934;6.958;2023-03-01T10:44:36;10.90;;;9.90;;
3677;SDS011;1855;50.934;6.958;2023-03-01T10:47:05;11.10;;;10.00;;
3677;SDS011;1855;50.934;6.958;2023-03-01T10:49:58;10.85;;;9.85;;
3677;SDS011;1855;50.934;6.958;2023-03-01T10:52:32;11.77;;;10.57;;
3677;SDS011;1855;50.934;6.958;2023-03-01T10:55:02;10.53;;;9.63;;
3677;SDS011;1855;50.934;6.958;2023-03-01T10:57:44;10.25;;;9.35;;
3677;SDS011;1855;50.934;6.958;2023-03-01T11:00:16;11.00;;;10.10;;
3677;SDS011;1855;50.934;6.958;2023-03-01T11:02:49;10.75;;;9.75;;
3677;SDS011;1855;50.934;6.958;2023-03-01T11:05:27;10.90;;;9.90;;
3677;SDS011;1855;50.934;6.958;2023-03-01T11:07:57;10.23;;;9.43;;
3677;SDS011;1855;50.934;6.958;2023-03-01T11:10:25;10.77;;;9.73;;
3677;SDS011;1855;50.934;6.958;2023-03-01T11:12:54;10.85;;;9.85;;
3677;SDS011;1855;50.934;6.958;2023-03-01T11:15:33;10.65;;;9.75;;
3677;SDS011;1855;50.934;6.958;2023-03-01T11:17:59;11.25;;;10.25;;
3677;SDS011;1855;50.934;6.958;2023-03-01T11:20:29;10.35;;;9.45;;
3677;SDS011;1855;50.934;6.958;2023-03-01T11:22:59;11.35;;;10.35;;
3677;SDS011;1855;50.934;6.958;2023-03-01T11:25:31;10.70;;;9.80;;
3677;SDS011;1855;50.934;6.958;2023-03-01T11:28:01;9.80;;;9.00;;
3677;SDS011;1855;50.934;6.958;2023-03-01T11:30:31;10.40;;;9.40;;
3677;SDS011;1855;50.934;6.958;2023-03-01T11:33:03;10.05;;;9.25;;
3677;SDS011;1855;50.934;6.958;2023-03-01T11:35:41;9.73;;;9.02;;
3677;SDS011;1855;50.934;6.958;2023-03-01T11:38:17;10.18;;;9.38;;
3677;SDS011;1855;50.934;6.958;2023-03-01T11:40:49;10.90;;;10.00;;
3677;SDS011;1855;50.934;6.958;2023-03-01T11:43:20;10.13;;;9.32;;
3677;SDS011;1855;50.934;6.958;2023-03-01T11:46:00;10.40;;;9.60;;
3677;SDS011;1855;50.934;6.958;2023-03-01T11:48:44;10.55;;;9.55;;
3677;SDS011;1855;50.934;6.958;2023-03-01T11:51:19;10.05;;;9.23;;
3677;SDS011;1855;50.934;6.958;2023-03-01T11:53:54;9.70;;;8.83;;
3677;SDS011;1855;50.934;6.958;2023-03-01T11:56:34;8.93;;;8.23;;
3677;SDS011;1855;50.934;6.958;2023-03-01T11:59:15;10.77;;;9.77;;
3677;SDS011;1855;50.934;6.958;2023-03-01T12:02:18;9.93;;;9.13;;
3677;SDS011;1855;50.934;6.958;2023-03-01T12:08:12;9.57;;;8.77;;
3677;SDS011;1855;50.934;6.958;2023-03-01T12:10:47;9.23;;;8.35;;
3677;SDS011;1855;50.934;6.958;2023-03-01T12:13:40;10.73;;;8.65;;
3677;SDS011;1855;50.934;6.958;2023-03-01T12:16:30;9.68;;;8.77;;
3677;SDS011;1855;50.934;6.958;2023-03-01T12:19:15;9.13;;;8.32;;
3677;SDS011;1855;50.934;6.958;2023-03-01T12:22:04;9.10;;;8.40;;
3677;SDS011;1855;50.934;6.958;2023-03-01T12:24:47;9.20;;;8.40;;
3677;SDS011;1855;50.934;6.958;2023-03-01T12:27:32;9.50;;;8.70;;
3677;SDS011;1855;50.934;6.958;2023-03-01T12:30:17;8.93;;;8.23;;
3677;SDS011;1855;50.934;6.958;2023-03-01T12:32:54;9.40;;;8.60;;
3677;SDS011;1855;50.934;6.958;2023-03-01T12:35:35;9.18;;;8.38;;
3677;SDS011;1855;50.934;6.958;2023-03-01T12:38:15;8.70;;;8.10;;
3677;SDS011;1855;50.934;6.958;2023-03-01T12:41:01;9.30;;;8.50;;
3677;SDS011;1855;50.934;6.958;2023-03-01T12:43:47;7.95;;;7.25;;
3677;SDS011;1855;50.934;6.958;2023-03-01T12:46:27;8.30;;;7.70;;
3677;SDS011;1855;50.934;6.958;2023-03-01T12:49:05;8.43;;;7.63;;
3677;SDS011;1855;50.934;6.958;2023-03-01T12:51:36;8.35;;;7.65;;
3677;SDS011;1855;50.934;6.958;2023-03-01T12:54:07;8.45;;;7.85;;
3677;SDS011;1855;50.934;6.958;2023-03-01T12:56:40;7.93;;;7.32;;
3677;SDS011;1855;50.934;6.958;2023-03-01T12:59:19;7.93;;;7.32;;
3677;SDS011;1855;50.934;6.958;2023-03-01T13:01:53;8.10;;;7.40;;
3677;SDS011;1855;50.934;6.958;2023-03-01T13:04:28;8.18;;;7.57;;
3677;SDS011;1855;50.934;6.958;2023-03-01T13:07:11;7.90;;;7.30;;
3677;SDS011;1855;50.934;6.958;2023-03-01T13:09:50;8.80;;;8.10;;
3677;SDS011;1855;50.934;6.958;2023-03-01T13:12:43;8.00;;;7.40;;
3677;SDS011;1855;50.934;6.958;2023-03-01T13:15:30;7.97;;;7.28;;
3677;SDS011;1855;50.934;6.958;2023-03-01T13:17:59;7.25;;;6.55;;
3677;SDS011;1855;50.934;6.958;2023-03-01T13:20:29;7.70;;;7.15;;
3677;SDS011;1855;50.934;6.958;2023-03-01T13:23:04;7.30;;;6.80;;
3677;SDS011;1855;50.934;6.958;2023-03-01T13:25:33;7.20;;;6.50;;
3677;SDS011;1855;50.934;6.958;2023-03-01T13:31:26;7.80;;;7.10;;
3677;SDS011;1855;50.934;6.958;2023-03-01T13:34:39;7.50;;;6.90;;
3677;SDS011;1855;50.934;6.958;2023-03-01T13:37:23;7.20;;;6.70;;
3677;SDS011;1855;50.934;6.958;2023-03-01T13:39:54;8.18;;;7.38;;
3677;SDS011;1855;50.934;6.958;2023-03-01T13:42:37;7.40;;;6.80;;
3677;SDS011;1855;50.934;6.958;2023-03-01T13:45:16;6.70;;;6.20;;
3677;SDS011;1855;50.934;6.958;2023-03-01T13:48:00;7.22;;;6.72;;
3677;SDS011;1855;50.934;6.958;2023-03-01T13:50:32;7.30;;;6.80;;
3677;SDS011;1855;50.934;6.958;2023-03-01T13:53:04;7.10;;;6.60;;
3677;SDS011;1855;50.934;6.958;2023-03-01T13:55:36;6.80;;;6.20;;
3677;SDS011;1855;50.934;6.958;2023-03-01T13:58:14;6.68;;;6.07;;
3677;SDS011;1855;50.934;6.958;2023-03-01T14:00:45;7.43;;;6.82;;
3677;SDS011;1855;50.934;6.958;2023-03-01T14:03:14;7.13;;;6.53;;
3677;SDS011;1855;50.934;6.958;2023-03-01T14:05:42;6.72;;;6.13;;
3677;SDS011;1855;50.934;6.958;2023-03-01T14:08:24;7.20;;;6.70;;
3677;SDS011;1855;50.934;6.958;2023-03-01T14:10:54;7.15;;;6.65;;
3677;SDS011;1855;50.934;6.958;2023-03-01T14:13:32;6.70;;;6.20;;
3677;SDS011;1855;50.934;6.958;2023-03-01T14:16:12;7.00;;;6.40;;
3677;SDS011;1855;50.934;6.958;2023-03-01T14:18:51;6.70;;;6.20;;
3677;SDS011;1855;50.934;6.958;2023-03-01T14:21:25;7.10;;;6.50;;
3677;SDS011;1855;50.934;6.958;2023-03-01T14:23:52;7.10;;;6.50;;
3677;SDS011;1855;50.934;6.958;2023-03-01T14:26:20;6.53;;;6.00;;
3677;SDS011;1855;50.934;6.958;2023-03-01T14:28:48;6.15;;;5.65;;
3677;SDS011;1855;50.934;6.958;2023-03-01T14:31:35;6.25;;;5.85;;
3677;SDS011;1855;50.934;6.958;2023-03-01T14:34:04;6.05;;;5.65;;
3677;SDS011;1855;50.934;6.958;2023-03-01T14:36:32;5.82;;;5.43;;
3677;SDS011;1855;50.934;6.958;2023-03-01T14:39:00;6.03;;;5.43;;
3677;SDS011;1855;50.934;6.958;2023-03-01T14:41:31;6.78;;;6.18;;
3677;SDS011;1855;50.934;6.958;2023-03-01T14:44:02;6.00;;;5.53;;
3677;SDS011;1855;50.934;6.958;2023-03-01T14:46:31;6.10;;;5.60;;
3677;SDS011;1855;50.934;6.958;2023-03-01T14:49:01;6.45;;;5.85;;
3677;SDS011;1855;50.934;6.958;2023-03-01T14:51:31;6.53;;;5.93;;
3677;SDS011;1855;50.934;6.958;2023-03-01T14:54:02;7.10;;;6.40;;
3677;SDS011;1855;50.934;6.958;2023-03-01T14:56:37;6.93;;;6.22;;
3677;SDS011;1855;50.934;6.958;2023-03-01T14:59:10;6.80;;;6.20;;
3677;SDS011;1855;50.934;6.958;2023-03-01T15:01:37;7.53;;;7.03;;
3677;SDS011;1855;50.934;6.958;2023-03-01T15:04:06;7.20;;;6.70;;
3677;SDS011;1855;50.934;6.958;2023-03-01T15:06:39;7.50;;;6.90;;
3677;SDS011;1855;50.934;6.958;2023-03-01T15:09:10;7.20;;;6.65;;
3677;SDS011;1855;50.934;6.958;2023-03-01T15:11:40;8.25;;;6.63;;
3677;SDS011;1855;50.934;6.958;2023-03-01T15:16:54;7.97;;;7.22;;
3677;SDS011;1855;50.934;6.958;2023-03-01T15:19:21;7.65;;;6.95;;
3677;SDS011;1855;50.934;6.958;2023-03-01T15:21:51;7.70;;;7.00;;
3677;SDS011;1855;50.934;6.958;2023-03-01T15:24:20;7.20;;;6.70;;
3677;SDS011;1855;50.934;6.958;2023-03-01T15:26:50;6.90;;;6.40;;
3677;SDS011;1855;50.934;6.958;2023-03-01T15:29:23;7.20;;;6.60;;
3677;SDS011;1855;50.934;6.958;2023-03-01T15:31:55;7.80;;;7.00;;
3677;SDS011;1855;50.934;6.958;2023-03-01T15:34:24;7.80;;;7.20;;
3677;SDS011;1855;50.934;6.958;2023-03-01T15:36:55;7.32;;;6.72;;
3677;SDS011;1855;50.934;6.958;2023-03-01T15:39:29;8.20;;;7.50;;
3677;SDS011;1855;50.934;6.958;2023-03-01T15:42:02;8.60;;;7.90;;